sensor_id;sensor_type;location;lat;lon;timestamp;P1;durP1;ratioP1;P2;durP2;ratioP2
38787;SDS011;24536;45.488;12.238;2023-06-24T00:02:06;5.10;;;2.40;;
38787;SDS011;24536;45.488;12.238;2023-06-24T00:04:32;2.88;;;2.30;;
38787;SDS011;24536;45.488;12.238;2023-06-24T00:06:59;3.55;;;2.55;;
38787;SDS011;24536;45.488;12.238;2023-06-24T00:09:27;3.28;;;2.30;;
38787;SDS011;24536;45.488;12.238;2023-06-24T00:11:54;2.65;;;2.17;;
38787;SDS011;24536;45.488;12.238;2023-06-24T00:14:21;3.53;;;2.30;;
38787;SDS011;24536;45.488;12.238;2023-06-24T00:16:49;4.38;;;2.28;;
38787;SDS011;24536;45.488;12.238;2023-06-24T00:19:22;3.13;;;2.40;;
38787;SDS011;24536;45.488;12.238;2023-06-24T00:21:49;2.30;;;1.83;;
38787;SDS011;24536;45.488;12.238;2023-06-24T00:24:21;3.40;;;2.40;;
38787;SDS011;24536;45.488;12.238;2023-06-24T00:26:54;3.78;;;2.78;;
38787;SDS011;24536;45.488;12.238;2023-06-24T00:29:20;4.20;;;2.33;;
38787;SDS011;24536;45.488;12.238;2023-06-24T00:31:45;4.10;;;2.88;;
38787;SDS011;24536;45.488;12.238;2023-06-24T00:34:11;2.50;;;2.03;;
38787;SDS011;24536;45.488;12.238;2023-06-24T00:36:37;4.32;;;2.53;;
38787;SDS011;24536;45.488;12.238;2023-06-24T00:39:03;4.03;;;2.58;;
38787;SDS011;24536;45.488;12.238;2023-06-24T00:41:30;5.05;;;2.50;;
38787;SDS011;24536;45.488;12.238;2023-06-24T00:43:57;3.85;;;2.30;;
38787;SDS011;24536;45.488;12.238;2023-06-24T00:46:27;5.13;;;2.65;;
38787;SDS011;24536;45.488;12.238;2023-06-24T00:48:56;4.38;;;2.33;;
38787;SDS011;24536;45.488;12.238;2023-06-24T00:51:22;8.93;;;2.85;;
38787;SDS011;24536;45.488;12.238;2023-06-24T00:53:58;4.43;;;2.33;;
38787;SDS011;24536;45.488;12.238;2023-06-24T00:56:34;3.10;;;2.20;;
38787;SDS011;24536;45.488;12.238;2023-06-24T00:59:03;3.65;;;2.40;;
38787;SDS011;24536;45.488;12.238;2023-06-24T01:01:33;12.25;;;2.80;;
38787;SDS011;24536;45.488;12.238;2023-06-24T01:04:01;2.38;;;1.90;;
38787;SDS011;24536;45.488;12.238;2023-06-24T01:06:28;4.03;;;2.42;;
38787;SDS011;24536;45.488;12.238;2023-06-24T01:09:00;3.63;;;2.70;;
38787;SDS011;24536;45.488;12.238;2023-06-24T01:11:28;2.95;;;2.30;;
38787;SDS011;24536;45.488;12.238;2023-06-24T01:13:55;5.93;;;2.80;;
38787;SDS011;24536;45.488;12.238;2023-06-24T01:16:34;3.92;;;2.42;;
38787;SDS011;24536;45.488;12.238;2023-06-24T01:19:33;4.07;;;1.95;;
38787;SDS011;24536;45.488;12.238;2023-06-24T01:22:21;3.33;;;2.38;;
38787;SDS011;24536;45.488;12.238;2023-06-24T01:30:50;2.40;;;2.20;;
38787;SDS011;24536;45.488;12.238;2023-06-24T01:33:32;3.38;;;2.65;;
38787;SDS011;24536;45.488;12.238;2023-06-24T01:36:10;2.70;;;2.30;;
38787;SDS011;24536;45.488;12.238;2023-06-24T01:41:18;3.03;;;2.50;;
38787;SDS011;24536;45.488;12.238;2023-06-24T01:43:50;2.90;;;2.30;;
38787;SDS011;24536;45.488;12.238;2023-06-24T01:46:20;2.72;;;2.20;;
38787;SDS011;24536;45.488;12.238;2023-06-24T01:48:47;6.87;;;2.30;;
38787;SDS011;24536;45.488;12.238;2023-06-24T01:51:17;6.82;;;2.55;;
38787;SDS011;24536;45.488;12.238;2023-06-24T01:53:48;5.63;;;2.75;;
38787;SDS011;24536;45.488;12.238;2023-06-24T01:56:20;4.03;;;2.75;;
38787;SDS011;24536;45.488;12.238;2023-06-24T01:58:48;3.78;;;2.70;;
38787;SDS011;24536;45.488;12.238;2023-06-24T02:01:17;5.18;;;2.63;;
38787;SDS011;24536;45.488;12.238;2023-06-24T02:03:44;5.35;;;3.22;;
38787;SDS011;24536;45.488;12.238;2023-06-24T02:06:11;5.05;;;2.83;;
38787;SDS011;24536;45.488;12.238;2023-06-24T02:08:39;3.88;;;2.65;;
38787;SDS011;24536;45.488;12.238;2023-06-24T02:11:06;3.47;;;2.97;;
38787;SDS011;24536;45.488;12.238;2023-06-24T02:13:34;3.17;;;2.50;;
38787;SDS011;24536;45.488;12.238;2023-06-24T02:16:02;3.25;;;2.42;;
38787;SDS011;24536;45.488;12.238;2023-06-24T02:18:31;3.55;;;2.45;;
38787;SDS011;24536;45.488;12.238;2023-06-24T02:21:00;5.10;;;2.40;;
38787;SDS011;24536;45.488;12.238;2023-06-24T02:23:26;6.60;;;2.72;;
38787;SDS011;24536;45.488;12.238;2023-06-24T02:25:53;3.15;;;2.50;;
38787;SDS011;24536;45.488;12.238;2023-06-24T02:28:19;4.05;;;3.00;;
38787;SDS011;24536;45.488;12.238;2023-06-24T02:30:46;4.80;;;2.60;;
38787;SDS011;24536;45.488;12.238;2023-06-24T02:33:13;4.25;;;2.72;;
38787;SDS011;24536;45.488;12.238;2023-06-24T02:35:39;4.03;;;2.58;;
38787;SDS011;24536;45.488;12.238;2023-06-24T02:38:06;6.00;;;2.80;;
38787;SDS011;24536;45.488;12.238;2023-06-24T02:40:32;5.22;;;3.05;;
38787;SDS011;24536;45.488;12.238;2023-06-24T02:42:59;6.43;;;3.08;;
38787;SDS011;24536;45.488;12.238;2023-06-24T02:45:25;4.75;;;2.75;;
38787;SDS011;24536;45.488;12.238;2023-06-24T02:47:51;4.35;;;2.42;;
38787;SDS011;24536;45.488;12.238;2023-06-24T02:50:19;4.18;;;2.65;;
38787;SDS011;24536;45.488;12.238;2023-06-24T02:52:46;3.90;;;2.40;;
38787;SDS011;24536;45.488;12.238;2023-06-24T02:55:12;3.50;;;2.65;;
38787;SDS011;24536;45.488;12.238;2023-06-24T02:57:39;3.53;;;2.72;;
38787;SDS011;24536;45.488;12.238;2023-06-24T03:00:06;4.00;;;2.53;;
38787;SDS011;24536;45.488;12.238;2023-06-24T03:02:40;3.78;;;2.45;;
38787;SDS011;24536;45.488;12.238;2023-06-24T03:05:07;3.67;;;2.58;;
38787;SDS011;24536;45.488;12.238;2023-06-24T03:07:35;5.13;;;2.35;;
38787;SDS011;24536;45.488;12.238;2023-06-24T03:10:02;5.72;;;2.42;;
38787;SDS011;24536;45.488;12.238;2023-06-24T03:12:30;6.07;;;3.20;;
38787;SDS011;24536;45.488;12.238;2023-06-24T03:14:56;5.05;;;3.00;;
38787;SDS011;24536;45.488;12.238;2023-06-24T03:17:22;6.15;;;3.17;;
38787;SDS011;24536;45.488;12.238;2023-06-24T03:19:49;4.93;;;2.83;;
38787;SDS011;24536;45.488;12.238;2023-06-24T03:22:15;4.10;;;2.70;;
38787;SDS011;24536;45.488;12.238;2023-06-24T03:24:42;4.60;;;2.90;;
38787;SDS011;24536;45.488;12.238;2023-06-24T03:27:08;5.05;;;3.00;;
38787;SDS011;24536;45.488;12.238;2023-06-24T03:29:33;3.67;;;2.53;;
38787;SDS011;24536;45.488;12.238;2023-06-24T03:31:59;4.15;;;2.97;;
38787;SDS011;24536;45.488;12.238;2023-06-24T03:34:25;5.82;;;2.88;;
38787;SDS011;24536;45.488;12.238;2023-06-24T03:36:52;6.85;;;3.15;;
38787;SDS011;24536;45.488;12.238;2023-06-24T03:39:19;5.65;;;3.20;;
38787;SDS011;24536;45.488;12.238;2023-06-24T03:41:45;4.57;;;3.10;;
38787;SDS011;24536;45.488;12.238;2023-06-24T03:44:11;4.70;;;2.97;;
38787;SDS011;24536;45.488;12.238;2023-06-24T03:46:37;6.05;;;2.88;;
38787;SDS011;24536;45.488;12.238;2023-06-24T03:49:03;3.85;;;2.70;;
38787;SDS011;24536;45.488;12.238;2023-06-24T03:51:29;4.47;;;2.83;;
38787;SDS011;24536;45.488;12.238;2023-06-24T03:53:54;4.10;;;2.45;;
38787;SDS011;24536;45.488;12.238;2023-06-24T03:56:20;4.75;;;3.03;;
38787;SDS011;24536;45.488;12.238;2023-06-24T03:58:46;6.03;;;3.28;;
38787;SDS011;24536;45.488;12.238;2023-06-24T04:01:11;3.88;;;2.90;;
38787;SDS011;24536;45.488;12.238;2023-06-24T04:03:37;4.40;;;2.78;;
38787;SDS011;24536;45.488;12.238;2023-06-24T04:06:03;4.03;;;2.95;;
38787;SDS011;24536;45.488;12.238;2023-06-24T04:08:29;4.65;;;2.92;;
38787;SDS011;24536;45.488;12.238;2023-06-24T04:10:58;4.18;;;2.60;;
38787;SDS011;24536;45.488;12.238;2023-06-24T04:13:28;3.20;;;2.75;;
38787;SDS011;24536;45.488;12.238;2023-06-24T04:15:54;4.07;;;3.17;;
38787;SDS011;24536;45.488;12.238;2023-06-24T04:18:20;4.25;;;3.03;;
38787;SDS011;24536;45.488;12.238;2023-06-24T04:20:46;4.00;;;2.70;;
38787;SDS011;24536;45.488;12.238;2023-06-24T04:23:12;3.45;;;2.80;;
38787;SDS011;24536;45.488;12.238;2023-06-24T04:25:39;4.07;;;2.88;;
38787;SDS011;24536;45.488;12.238;2023-06-24T04:28:05;4.50;;;2.72;;
38787;SDS011;24536;45.488;12.238;2023-06-24T04:30:31;4.25;;;2.78;;
38787;SDS011;24536;45.488;12.238;2023-06-24T04:33:00;4.63;;;2.70;;
38787;SDS011;24536;45.488;12.238;2023-06-24T04:35:26;6.72;;;3.35;;
38787;SDS011;24536;45.488;12.238;2023-06-24T04:37:51;4.72;;;3.30;;
38787;SDS011;24536;45.488;12.238;2023-06-24T04:40:17;5.97;;;3.45;;
38787;SDS011;24536;45.488;12.238;2023-06-24T04:42:44;7.43;;;3.92;;
38787;SDS011;24536;45.488;12.238;2023-06-24T04:45:10;5.47;;;3.30;;
38787;SDS011;24536;45.488;12.238;2023-06-24T04:47:36;4.68;;;3.35;;
38787;SDS011;24536;45.488;12.238;2023-06-24T04:50:02;5.75;;;3.92;;
38787;SDS011;24536;45.488;12.238;2023-06-24T04:52:28;5.20;;;3.95;;
38787;SDS011;24536;45.488;12.238;2023-06-24T04:54:54;5.75;;;4.35;;
38787;SDS011;24536;45.488;12.238;2023-06-24T04:57:23;6.53;;;4.18;;
38787;SDS011;24536;45.488;12.238;2023-06-24T04:59:52;6.53;;;4.05;;
38787;SDS011;24536;45.488;12.238;2023-06-24T05:02:17;6.47;;;4.20;;
38787;SDS011;24536;45.488;12.238;2023-06-24T05:04:43;6.72;;;3.70;;
38787;SDS011;24536;45.488;12.238;2023-06-24T05:07:09;4.63;;;3.15;;
38787;SDS011;24536;45.488;12.238;2023-06-24T05:09:34;6.88;;;4.05;;
38787;SDS011;24536;45.488;12.238;2023-06-24T05:12:03;6.85;;;3.92;;
38787;SDS011;24536;45.488;12.238;2023-06-24T05:14:29;5.63;;;3.60;;
38787;SDS011;24536;45.488;12.238;2023-06-24T05:16:55;5.60;;;3.10;;
38787;SDS011;24536;45.488;12.238;2023-06-24T05:19:21;5.22;;;3.13;;
38787;SDS011;24536;45.488;12.238;2023-06-24T05:21:46;8.13;;;3.17;;
38787;SDS011;24536;45.488;12.238;2023-06-24T05:24:12;5.28;;;3.72;;
38787;SDS011;24536;45.488;12.238;2023-06-24T05:26:38;5.85;;;3.42;;
38787;SDS011;24536;45.488;12.238;2023-06-24T05:29:03;4.45;;;2.90;;
38787;SDS011;24536;45.488;12.238;2023-06-24T05:31:29;3.97;;;2.40;;
38787;SDS011;24536;45.488;12.238;2023-06-24T05:33:55;4.50;;;3.15;;
38787;SDS011;24536;45.488;12.238;2023-06-24T05:36:20;5.28;;;3.30;;
38787;SDS011;24536;45.488;12.238;2023-06-24T05:38:46;4.35;;;3.40;;
38787;SDS011;24536;45.488;12.238;2023-06-24T05:41:13;6.35;;;3.55;;
38787;SDS011;24536;45.488;12.238;2023-06-24T05:43:39;5.63;;;3.30;;
38787;SDS011;24536;45.488;12.238;2023-06-24T05:46:07;7.63;;;4.55;;
38787;SDS011;24536;45.488;12.238;2023-06-24T05:48:33;8.55;;;3.35;;
38787;SDS011;24536;45.488;12.238;2023-06-24T05:50:58;3.08;;;2.50;;
38787;SDS011;24536;45.488;12.238;2023-06-24T05:53:24;4.70;;;3.33;;
38787;SDS011;24536;45.488;12.238;2023-06-24T05:55:50;3.78;;;2.53;;
38787;SDS011;24536;45.488;12.238;2023-06-24T05:58:15;5.35;;;2.60;;
38787;SDS011;24536;45.488;12.238;2023-06-24T06:00:41;4.65;;;2.92;;
38787;SDS011;24536;45.488;12.238;2023-06-24T06:03:07;3.83;;;2.55;;
38787;SDS011;24536;45.488;12.238;2023-06-24T06:05:33;6.22;;;2.45;;
38787;SDS011;24536;45.488;12.238;2023-06-24T06:07:58;16.08;;;3.17;;
38787;SDS011;24536;45.488;12.238;2023-06-24T06:10:24;29.35;;;4.15;;
38787;SDS011;24536;45.488;12.238;2023-06-24T06:12:50;18.88;;;4.22;;
38787;SDS011;24536;45.488;12.238;2023-06-24T06:15:15;13.25;;;3.13;;
38787;SDS011;24536;45.488;12.238;2023-06-24T06:17:41;8.90;;;3.33;;
38787;SDS011;24536;45.488;12.238;2023-06-24T06:20:07;5.65;;;3.25;;
38787;SDS011;24536;45.488;12.238;2023-06-24T06:22:33;4.80;;;2.35;;
38787;SDS011;24536;45.488;12.238;2023-06-24T06:25:03;4.13;;;2.43;;
38787;SDS011;24536;45.488;12.238;2023-06-24T06:27:30;3.88;;;2.30;;
38787;SDS011;24536;45.488;12.238;2023-06-24T06:29:56;5.03;;;2.65;;
38787;SDS011;24536;45.488;12.238;2023-06-24T06:32:21;3.95;;;2.22;;
38787;SDS011;24536;45.488;12.238;2023-06-24T06:34:47;3.65;;;2.22;;
38787;SDS011;24536;45.488;12.238;2023-06-24T06:37:12;2.95;;;2.20;;
38787;SDS011;24536;45.488;12.238;2023-06-24T06:39:38;3.75;;;2.58;;
38787;SDS011;24536;45.488;12.238;2023-06-24T06:42:04;4.03;;;2.42;;
38787;SDS011;24536;45.488;12.238;2023-06-24T06:44:30;3.65;;;2.28;;
38787;SDS011;24536;45.488;12.238;2023-06-24T06:46:55;4.03;;;2.15;;
38787;SDS011;24536;45.488;12.238;2023-06-24T06:49:21;4.18;;;2.65;;
38787;SDS011;24536;45.488;12.238;2023-06-24T06:51:47;4.57;;;2.95;;
38787;SDS011;24536;45.488;12.238;2023-06-24T06:54:13;3.90;;;2.60;;
38787;SDS011;24536;45.488;12.238;2023-06-24T06:56:38;5.78;;;2.45;;
38787;SDS011;24536;45.488;12.238;2023-06-24T06:59:05;4.25;;;2.50;;
38787;SDS011;24536;45.488;12.238;2023-06-24T07:01:30;3.67;;;2.78;;
38787;SDS011;24536;45.488;12.238;2023-06-24T07:03:56;8.13;;;2.40;;
38787;SDS011;24536;45.488;12.238;2023-06-24T07:06:22;4.50;;;2.30;;
38787;SDS011;24536;45.488;12.238;2023-06-24T07:08:47;2.30;;;2.00;;
38787;SDS011;24536;45.488;12.238;2023-06-24T07:11:13;2.53;;;1.85;;
38787;SDS011;24536;45.488;12.238;2023-06-24T07:13:39;5.40;;;2.58;;
38787;SDS011;24536;45.488;12.238;2023-06-24T07:16:05;2.42;;;1.92;;
38787;SDS011;24536;45.488;12.238;2023-06-24T07:18:30;3.38;;;2.13;;
38787;SDS011;24536;45.488;12.238;2023-06-24T07:20:56;4.32;;;2.22;;
38787;SDS011;24536;45.488;12.238;2023-06-24T07:23:24;2.70;;;2.00;;
38787;SDS011;24536;45.488;12.238;2023-06-24T07:25:50;4.53;;;1.73;;
38787;SDS011;24536;45.488;12.238;2023-06-24T07:28:16;3.63;;;2.00;;
38787;SDS011;24536;45.488;12.238;2023-06-24T07:30:41;2.25;;;2.00;;
38787;SDS011;24536;45.488;12.238;2023-06-24T07:33:07;5.85;;;2.78;;
38787;SDS011;24536;45.488;12.238;2023-06-24T07:35:33;5.32;;;2.05;;
38787;SDS011;24536;45.488;12.238;2023-06-24T07:37:59;4.43;;;2.08;;
38787;SDS011;24536;45.488;12.238;2023-06-24T07:40:25;2.03;;;1.80;;
38787;SDS011;24536;45.488;12.238;2023-06-24T07:42:51;3.03;;;1.95;;
38787;SDS011;24536;45.488;12.238;2023-06-24T07:45:18;3.05;;;1.85;;
38787;SDS011;24536;45.488;12.238;2023-06-24T07:47:43;3.47;;;1.90;;
38787;SDS011;24536;45.488;12.238;2023-06-24T07:50:09;2.55;;;1.80;;
38787;SDS011;24536;45.488;12.238;2023-06-24T07:52:36;2.50;;;1.70;;
38787;SDS011;24536;45.488;12.238;2023-06-24T07:55:02;2.42;;;1.60;;
38787;SDS011;24536;45.488;12.238;2023-06-24T07:57:28;3.88;;;1.92;;
38787;SDS011;24536;45.488;12.238;2023-06-24T07:59:54;2.08;;;1.50;;
38787;SDS011;24536;45.488;12.238;2023-06-24T08:02:20;2.63;;;1.50;;
38787;SDS011;24536;45.488;12.238;2023-06-24T08:04:46;4.40;;;1.65;;
38787;SDS011;24536;45.488;12.238;2023-06-24T08:07:11;4.32;;;1.50;;
38787;SDS011;24536;45.488;12.238;2023-06-24T08:09:37;2.25;;;2.05;;
38787;SDS011;24536;45.488;12.238;2023-06-24T08:12:03;3.58;;;2.03;;
38787;SDS011;24536;45.488;12.238;2023-06-24T08:14:29;1.60;;;1.45;;
38787;SDS011;24536;45.488;12.238;2023-06-24T08:16:55;3.47;;;1.77;;
38787;SDS011;24536;45.488;12.238;2023-06-24T08:19:20;1.80;;;1.45;;
38787;SDS011;24536;45.488;12.238;2023-06-24T08:21:46;2.83;;;2.15;;
38787;SDS011;24536;45.488;12.238;2023-06-24T08:24:12;3.28;;;1.38;;
38787;SDS011;24536;45.488;12.238;2023-06-24T08:26:37;4.07;;;1.70;;
38787;SDS011;24536;45.488;12.238;2023-06-24T08:29:03;2.35;;;1.83;;
38787;SDS011;24536;45.488;12.238;2023-06-24T08:31:29;2.30;;;1.80;;
38787;SDS011;24536;45.488;12.238;2023-06-24T08:33:54;3.33;;;1.88;;
38787;SDS011;24536;45.488;12.238;2023-06-24T08:36:26;2.87;;;2.03;;
38787;SDS011;24536;45.488;12.238;2023-06-24T08:38:53;3.23;;;2.20;;
38787;SDS011;24536;45.488;12.238;2023-06-24T08:41:18;2.13;;;1.75;;
38787;SDS011;24536;45.488;12.238;2023-06-24T08:43:44;1.83;;;1.60;;
38787;SDS011;24536;45.488;12.238;2023-06-24T08:46:10;1.77;;;1.48;;
38787;SDS011;24536;45.488;12.238;2023-06-24T08:48:38;2.42;;;1.65;;
38787;SDS011;24536;45.488;12.238;2023-06-24T08:51:08;3.10;;;1.80;;
38787;SDS011;24536;45.488;12.238;2023-06-24T08:53:35;1.85;;;1.63;;
38787;SDS011;24536;45.488;12.238;2023-06-24T08:56:02;2.13;;;1.63;;
38787;SDS011;24536;45.488;12.238;2023-06-24T08:58:29;2.97;;;1.77;;
38787;SDS011;24536;45.488;12.238;2023-06-24T09:00:55;3.15;;;1.80;;
38787;SDS011;24536;45.488;12.238;2023-06-24T09:03:21;2.38;;;1.80;;
38787;SDS011;24536;45.488;12.238;2023-06-24T09:05:47;3.25;;;1.70;;
38787;SDS011;24536;45.488;12.238;2023-06-24T09:08:13;2.28;;;1.73;;
38787;SDS011;24536;45.488;12.238;2023-06-24T09:10:40;1.95;;;1.55;;
38787;SDS011;24536;45.488;12.238;2023-06-24T09:13:07;2.78;;;1.90;;
38787;SDS011;24536;45.488;12.238;2023-06-24T09:17:58;3.15;;;1.70;;
38787;SDS011;24536;45.488;12.238;2023-06-24T09:20:28;4.03;;;1.60;;
38787;SDS011;24536;45.488;12.238;2023-06-24T09:23:13;2.22;;;2.03;;
38787;SDS011;24536;45.488;12.238;2023-06-24T09:25:39;3.10;;;2.00;;
38787;SDS011;24536;45.488;12.238;2023-06-24T09:28:05;2.95;;;2.05;;
38787;SDS011;24536;45.488;12.238;2023-06-24T09:30:31;3.05;;;2.15;;
38787;SDS011;24536;45.488;12.238;2023-06-24T09:32:56;1.95;;;1.73;;
38787;SDS011;24536;45.488;12.238;2023-06-24T09:35:22;2.60;;;1.60;;
38787;SDS011;24536;45.488;12.238;2023-06-24T09:40:20;2.75;;;1.65;;
38787;SDS011;24536;45.488;12.238;2023-06-24T09:43:04;3.47;;;1.73;;
38787;SDS011;24536;45.488;12.238;2023-06-24T09:45:30;1.98;;;1.70;;
38787;SDS011;24536;45.488;12.238;2023-06-24T09:47:56;6.85;;;2.38;;
38787;SDS011;24536;45.488;12.238;2023-06-24T09:50:25;2.83;;;2.00;;
38787;SDS011;24536;45.488;12.238;2023-06-24T09:52:51;3.08;;;2.25;;
38787;SDS011;24536;45.488;12.238;2023-06-24T09:55:18;2.28;;;1.75;;
38787;SDS011;24536;45.488;12.238;2023-06-24T09:57:49;2.60;;;1.83;;
38787;SDS011;24536;45.488;12.238;2023-06-24T10:00:17;2.05;;;1.60;;
38787;SDS011;24536;45.488;12.238;2023-06-24T10:02:44;2.58;;;2.25;;
38787;SDS011;24536;45.488;12.238;2023-06-24T10:05:11;3.05;;;2.17;;
38787;SDS011;24536;45.488;12.238;2023-06-24T10:10:07;2.05;;;1.60;;
38787;SDS011;24536;45.488;12.238;2023-06-24T10:12:34;2.22;;;1.67;;
38787;SDS011;24536;45.488;12.238;2023-06-24T10:15:00;1.80;;;1.60;;
38787;SDS011;24536;45.488;12.238;2023-06-24T10:17:26;3.25;;;1.83;;
38787;SDS011;24536;45.488;12.238;2023-06-24T10:19:52;1.58;;;1.42;;
38787;SDS011;24536;45.488;12.238;2023-06-24T10:22:24;1.67;;;1.38;;
38787;SDS011;24536;45.488;12.238;2023-06-24T10:24:51;1.40;;;1.17;;
38787;SDS011;24536;45.488;12.238;2023-06-24T10:27:18;1.90;;;1.33;;
38787;SDS011;24536;45.488;12.238;2023-06-24T10:29:49;2.15;;;1.33;;
38787;SDS011;24536;45.488;12.238;2023-06-24T10:32:16;1.17;;;1.05;;
38787;SDS011;24536;45.488;12.238;2023-06-24T10:34:44;1.33;;;1.10;;
38787;SDS011;24536;45.488;12.238;2023-06-24T10:47:38;1.35;;;0.90;;
38787;SDS011;24536;45.488;12.238;2023-06-24T10:50:09;1.00;;;0.90;;
38787;SDS011;24536;45.488;12.238;2023-06-24T10:52:39;5.93;;;0.95;;
38787;SDS011;24536;45.488;12.238;2023-06-24T10:55:06;1.17;;;1.08;;
38787;SDS011;24536;45.488;12.238;2023-06-24T10:57:33;3.55;;;1.70;;
38787;SDS011;24536;45.488;12.238;2023-06-24T10:59:59;1.55;;;1.30;;
38787;SDS011;24536;45.488;12.238;2023-06-24T11:02:27;1.98;;;1.30;;
38787;SDS011;24536;45.488;12.238;2023-06-24T11:04:54;2.17;;;1.30;;
38787;SDS011;24536;45.488;12.238;2023-06-24T11:07:23;1.25;;;1.02;;
38787;SDS011;24536;45.488;12.238;2023-06-24T11:09:53;1.40;;;1.20;;
38787;SDS011;24536;45.488;12.238;2023-06-24T11:12:23;1.73;;;1.38;;
38787;SDS011;24536;45.488;12.238;2023-06-24T11:14:59;2.83;;;1.80;;
38787;SDS011;24536;45.488;12.238;2023-06-24T11:17:29;1.77;;;1.60;;
38787;SDS011;24536;45.488;12.238;2023-06-24T11:19:55;1.80;;;1.50;;
38787;SDS011;24536;45.488;12.238;2023-06-24T11:22:22;3.50;;;1.88;;
38787;SDS011;24536;45.488;12.238;2023-06-24T11:24:49;2.08;;;1.50;;
38787;SDS011;24536;45.488;12.238;2023-06-24T11:27:14;7.03;;;2.40;;
38787;SDS011;24536;45.488;12.238;2023-06-24T11:29:40;4.07;;;1.60;;
38787;SDS011;24536;45.488;12.238;2023-06-24T11:32:09;2.97;;;1.52;;
38787;SDS011;24536;45.488;12.238;2023-06-24T11:34:35;1.90;;;1.70;;
38787;SDS011;24536;45.488;12.238;2023-06-24T11:37:14;1.77;;;1.20;;
38787;SDS011;24536;45.488;12.238;2023-06-24T11:39:42;2.05;;;1.60;;
38787;SDS011;24536;45.488;12.238;2023-06-24T11:42:08;2.80;;;1.42;;
38787;SDS011;24536;45.488;12.238;2023-06-24T11:44:35;2.42;;;1.77;;
38787;SDS011;24536;45.488;12.238;2023-06-24T11:47:07;3.50;;;1.70;;
38787;SDS011;24536;45.488;12.238;2023-06-24T11:49:52;1.85;;;1.52;;
38787;SDS011;24536;45.488;12.238;2023-06-24T11:52:32;2.42;;;1.63;;
38787;SDS011;24536;45.488;12.238;2023-06-24T11:54:59;2.53;;;1.40;;
38787;SDS011;24536;45.488;12.238;2023-06-24T12:00:23;3.03;;;1.25;;
38787;SDS011;24536;45.488;12.238;2023-06-24T12:02:53;1.65;;;1.35;;
38787;SDS011;24536;45.488;12.238;2023-06-24T12:05:31;2.22;;;1.60;;
38787;SDS011;24536;45.488;12.238;2023-06-24T12:07:58;3.00;;;1.55;;
38787;SDS011;24536;45.488;12.238;2023-06-24T12:10:28;1.45;;;1.05;;
38787;SDS011;24536;45.488;12.238;2023-06-24T12:12:56;1.92;;;1.50;;
38787;SDS011;24536;45.488;12.238;2023-06-24T12:15:23;1.13;;;1.00;;
38787;SDS011;24536;45.488;12.238;2023-06-24T12:17:48;2.22;;;1.63;;
38787;SDS011;24536;45.488;12.238;2023-06-24T12:20:14;2.92;;;1.50;;
38787;SDS011;24536;45.488;12.238;2023-06-24T12:22:41;1.40;;;1.10;;
38787;SDS011;24536;45.488;12.238;2023-06-24T12:25:07;1.60;;;1.35;;
38787;SDS011;24536;45.488;12.238;2023-06-24T12:27:33;3.50;;;1.45;;
38787;SDS011;24536;45.488;12.238;2023-06-24T12:29:59;3.63;;;1.70;;
38787;SDS011;24536;45.488;12.238;2023-06-24T12:32:25;1.85;;;1.40;;
38787;SDS011;24536;45.488;12.238;2023-06-24T12:34:51;2.53;;;1.50;;
38787;SDS011;24536;45.488;12.238;2023-06-24T12:37:17;2.40;;;1.90;;
38787;SDS011;24536;45.488;12.238;2023-06-24T12:39:44;1.92;;;1.40;;
38787;SDS011;24536;45.488;12.238;2023-06-24T12:42:10;2.45;;;1.77;;
38787;SDS011;24536;45.488;12.238;2023-06-24T12:44:36;2.83;;;1.80;;
38787;SDS011;24536;45.488;12.238;2023-06-24T12:47:03;3.58;;;1.88;;
38787;SDS011;24536;45.488;12.238;2023-06-24T12:49:28;3.83;;;1.70;;
38787;SDS011;24536;45.488;12.238;2023-06-24T12:51:54;2.35;;;1.40;;
38787;SDS011;24536;45.488;12.238;2023-06-24T12:54:20;2.15;;;1.30;;
38787;SDS011;24536;45.488;12.238;2023-06-24T12:56:45;1.98;;;1.55;;
38787;SDS011;24536;45.488;12.238;2023-06-24T12:59:11;1.20;;;1.10;;
38787;SDS011;24536;45.488;12.238;2023-06-24T13:01:37;1.90;;;1.27;;
38787;SDS011;24536;45.488;12.238;2023-06-24T13:04:03;1.92;;;1.60;;
38787;SDS011;24536;45.488;12.238;2023-06-24T13:06:29;1.95;;;1.38;;
38787;SDS011;24536;45.488;12.238;2023-06-24T13:08:54;2.13;;;1.65;;
38787;SDS011;24536;45.488;12.238;2023-06-24T13:11:20;4.60;;;1.20;;
38787;SDS011;24536;45.488;12.238;2023-06-24T13:13:46;4.45;;;1.40;;
38787;SDS011;24536;45.488;12.238;2023-06-24T13:16:11;2.08;;;1.20;;
38787;SDS011;24536;45.488;12.238;2023-06-24T13:18:37;2.35;;;1.30;;
38787;SDS011;24536;45.488;12.238;2023-06-24T13:21:03;2.65;;;1.33;;
38787;SDS011;24536;45.488;12.238;2023-06-24T13:23:28;1.52;;;1.20;;
38787;SDS011;24536;45.488;12.238;2023-06-24T13:25:54;1.52;;;1.00;;
38787;SDS011;24536;45.488;12.238;2023-06-24T13:28:20;2.08;;;1.42;;
38787;SDS011;24536;45.488;12.238;2023-06-24T13:30:45;2.03;;;1.13;;
38787;SDS011;24536;45.488;12.238;2023-06-24T13:33:11;1.88;;;1.20;;
38787;SDS011;24536;45.488;12.238;2023-06-24T13:35:37;2.00;;;1.25;;
38787;SDS011;24536;45.488;12.238;2023-06-24T13:38:02;4.70;;;1.40;;
38787;SDS011;24536;45.488;12.238;2023-06-24T13:40:28;1.77;;;1.20;;
38787;SDS011;24536;45.488;12.238;2023-06-24T13:42:54;1.42;;;1.08;;
38787;SDS011;24536;45.488;12.238;2023-06-24T13:45:20;1.83;;;1.20;;
38787;SDS011;24536;45.488;12.238;2023-06-24T13:47:45;2.08;;;1.27;;
38787;SDS011;24536;45.488;12.238;2023-06-24T13:50:11;2.20;;;1.35;;
38787;SDS011;24536;45.488;12.238;2023-06-24T13:52:37;2.20;;;1.50;;
38787;SDS011;24536;45.488;12.238;2023-06-24T13:55:04;3.33;;;1.70;;
38787;SDS011;24536;45.488;12.238;2023-06-24T13:57:30;2.53;;;1.52;;
38787;SDS011;24536;45.488;12.238;2023-06-24T13:59:55;6.85;;;1.50;;
38787;SDS011;24536;45.488;12.238;2023-06-24T14:02:21;2.75;;;1.42;;
38787;SDS011;24536;45.488;12.238;2023-06-24T14:04:47;2.90;;;1.60;;
38787;SDS011;24536;45.488;12.238;2023-06-24T14:07:13;2.75;;;1.15;;
38787;SDS011;24536;45.488;12.238;2023-06-24T14:09:38;3.58;;;1.17;;
38787;SDS011;24536;45.488;12.238;2023-06-24T14:12:05;2.38;;;1.38;;
38787;SDS011;24536;45.488;12.238;2023-06-24T14:14:34;1.83;;;1.30;;
38787;SDS011;24536;45.488;12.238;2023-06-24T14:17:00;6.55;;;1.60;;
38787;SDS011;24536;45.488;12.238;2023-06-24T14:19:26;4.05;;;1.48;;
38787;SDS011;24536;45.488;12.238;2023-06-24T14:21:51;25.45;;;3.58;;
38787;SDS011;24536;45.488;12.238;2023-06-24T14:24:17;2.03;;;1.35;;
38787;SDS011;24536;45.488;12.238;2023-06-24T14:26:43;2.47;;;1.20;;
38787;SDS011;24536;45.488;12.238;2023-06-24T14:29:09;2.55;;;1.60;;
38787;SDS011;24536;45.488;12.238;2023-06-24T14:31:35;2.17;;;1.20;;
38787;SDS011;24536;45.488;12.238;2023-06-24T14:34:00;2.05;;;1.38;;
38787;SDS011;24536;45.488;12.238;2023-06-24T14:36:26;5.18;;;1.30;;
38787;SDS011;24536;45.488;12.238;2023-06-24T14:38:52;1.67;;;1.23;;
38787;SDS011;24536;45.488;12.238;2023-06-24T14:41:17;5.97;;;1.65;;
38787;SDS011;24536;45.488;12.238;2023-06-24T14:43:43;4.15;;;1.75;;
38787;SDS011;24536;45.488;12.238;2023-06-24T14:46:08;2.40;;;1.30;;
38787;SDS011;24536;45.488;12.238;2023-06-24T14:48:34;4.88;;;1.02;;
38787;SDS011;24536;45.488;12.238;2023-06-24T14:51:01;1.02;;;0.93;;
38787;SDS011;24536;45.488;12.238;2023-06-24T14:53:26;1.42;;;0.82;;
38787;SDS011;24536;45.488;12.238;2023-06-24T14:55:52;1.58;;;1.00;;
38787;SDS011;24536;45.488;12.238;2023-06-24T14:58:18;1.88;;;1.00;;
38787;SDS011;24536;45.488;12.238;2023-06-24T15:00:43;1.40;;;0.60;;
38787;SDS011;24536;45.488;12.238;2023-06-24T15:03:09;1.80;;;1.00;;